Voyager Of The Seas — C6SE5 — position and weather

sailwx.info

Track history (hours):
 
Tides and Currents Weather Stations Pressure Air Temp Water Temp Dewpoint Dewpoint Depression Visibility Wind Speed Wind Dir Waves Ship Positions

Voyager Of The Seas

Operator: Royal Caribbean Cruises Ltd

Last reported at 2014-Sep-18 17:03 UTC. Time now 2014-Sep-21 16:05 UTC.
Position N 25°06' E 120°41'.

Type: Passenger vessel. MMSI: 311317000.

Date/timePositionNaut miles runAvg speedWind from/ knotsBaromVisibWave heightAir tempDewpointWater temp
2014-Sep-18 17:03N 25°06' E 120°41'1116.8
2014-Sep-18 16:23N 24°59' E 120°31'1316.2
2014-Sep-18 15:33N 24°52' E 120°19'3416.8
2014-Sep-18 13:33N 24°33' E 119°48'1616.5
2014-Sep-18 12:33N 24°23' E 119°34'1615.8
2014-Sep-18 11:33N 24°15' E 119°19'1212.0
2014-Sep-18 10:33N 24°08' E 119°08'1312.5
2014-Sep-18 09:31N 24°00' E 118°56'2713.3
2014-Sep-18 07:27N 23°44' E 118°33'1213.0
2014-Sep-18 06:32N 23°37' E 118°22'1413.3
2014-Sep-18 05:31N 23°29' E 118°10'5012.6
2014-Sep-18 01:33N 23°03' E 117°24'1312.5
2014-Sep-18 00:32N 22°56' E 117°12'17012.1
2014-Sep-17 10:33N 22°18' E 114°13'0 0.3
2014-Sep-17 09:32N 22°18' E 114°13'0 0.0
2014-Sep-17 08:32N 22°18' E 114°13'0 0.0
2014-Sep-17 07:32N 22°18' E 114°13'0 0.0
2014-Sep-17 06:32N 22°18' E 114°13'0 0.0
2014-Sep-17 05:32N 22°18' E 114°13'0 0.0
2014-Sep-17 04:32N 22°18' E 114°13'0 0.0
2014-Sep-17 03:32N 22°18' E 114°13'0 0.0
2014-Sep-17 02:32N 22°18' E 114°13'0 0.0
2014-Sep-17 01:32N 22°18' E 114°13'0 0.0
2014-Sep-17 00:32N 22°18' E 114°13'0 0.1
2014-Sep-16 23:33N 22°18' E 114°13'23417.8
2014-Sep-16 10:28N 23°31' E 118°14'  
2014-Sep-11 00:31N 37°14' E 123°16'1919.7
2014-Sep-10 23:34N 37°31' E 123°07'2019.5
2014-Sep-10 22:33N 37°45' E 122°49'2120.0
2014-Sep-10 21:32N 37°55' E 122°26'3121.2
2014-Sep-10 20:05N 38°08' E 121°52'1121.3
2014-Sep-10 19:33N 38°13' E 121°38'2120.9
2014-Sep-10 18:33N 38°24' E 121°16'1818.1
2014-Sep-10 17:33N 38°32' E 120°55'1716.3
2014-Sep-10 16:31N 38°35' E 120°34'1919.4
2014-Sep-10 15:33N 38°38' E 120°10'2319.9
2014-Sep-10 14:23N 38°41' E 119°41'2620.3
2014-Sep-10 13:07N 38°44' E 119°08'1221.3
2014-Sep-10 12:33N 38°46' E 118°53'2221.6
2014-Sep-10 11:33N 38°48' E 118°25'1817.5
2014-Sep-10 10:30N 38°55' E 118°03'1212.4
2014-Sep-10 09:33N 38°58' E 117°49'0 0.1
2014-Sep-10 08:26N 38°59' E 117°49'0 0.1
2014-Sep-10 07:32N 38°59' E 117°49'0 0.0
2014-Sep-10 04:26N 38°59' E 117°49'0 0.0
2014-Sep-10 03:32N 38°59' E 117°49'0 0.0
2014-Sep-10 02:32N 38°59' E 117°49'0 0.0
2014-Sep-10 01:32N 38°59' E 117°49'0 0.0
2014-Sep-09 22:30N 38°59' E 117°49'9 9.3
2014-Sep-09 21:33N 38°56' E 118°00'2411.8
2014-Sep-09 19:32N 38°50' E 118°29'2613.2
2014-Sep-09 17:33N 38°48' E 119°03'3214.1
2014-Sep-09 15:17N 38°44' E 119°43'1514.9
2014-Sep-09 14:17N 38°42' E 120°02'3813.3
2014-Sep-09 11:24N 38°36' E 120°51'1211.6
2014-Sep-09 10:19N 38°32' E 121°06'1112.9
2014-Sep-09 09:28N 38°27' E 121°18'1413.5
2014-Sep-09 08:26N 38°19' E 121°34'3213.9
2014-Sep-09 06:07N 38°04' E 122°09'814.2
2014-Sep-09 05:32N 37°59' E 122°18'9413.2
2014-Sep-08 22:26N 36°47' E 123°33'6018.8
2014-Sep-08 19:14N 35°53' E 124°08'  
Track history (hours):
 
Tides and Currents Weather Stations Pressure Air Temp Water Temp Dewpoint Dewpoint Depression Visibility Wind Speed Wind Dir Waves Ship Positions

Voyager Of The Seas

Operator: Royal Caribbean Cruises Ltd

Last reported at 2014-Sep-18 17:03 UTC. Time now 2014-Sep-21 16:05 UTC.
Position N 25°06' E 120°41'.

Type: Passenger vessel. MMSI: 311317000.

Date/timePositionNaut miles runAvg speedWind from/ knotsBaromVisibWave heightAir tempDewpointWater temp
2014-Sep-18 17:03N 25°06' E 120°41'1116.8
2014-Sep-18 16:23N 24°59' E 120°31'1316.2
2014-Sep-18 15:33N 24°52' E 120°19'3416.8
2014-Sep-18 13:33N 24°33' E 119°48'1616.5
2014-Sep-18 12:33N 24°23' E 119°34'1615.8
2014-Sep-18 11:33N 24°15' E 119°19'1212.0
2014-Sep-18 10:33N 24°08' E 119°08'1312.5
2014-Sep-18 09:31N 24°00' E 118°56'2713.3
2014-Sep-18 07:27N 23°44' E 118°33'1213.0
2014-Sep-18 06:32N 23°37' E 118°22'1413.3
2014-Sep-18 05:31N 23°29' E 118°10'5012.6
2014-Sep-18 01:33N 23°03' E 117°24'1312.5
2014-Sep-18 00:32N 22°56' E 117°12'17012.1
2014-Sep-17 10:33N 22°18' E 114°13'0 0.3
2014-Sep-17 09:32N 22°18' E 114°13'0 0.0
2014-Sep-17 08:32N 22°18' E 114°13'0 0.0
2014-Sep-17 07:32N 22°18' E 114°13'0 0.0
2014-Sep-17 06:32N 22°18' E 114°13'0 0.0
2014-Sep-17 05:32N 22°18' E 114°13'0 0.0
2014-Sep-17 04:32N 22°18' E 114°13'0 0.0
2014-Sep-17 03:32N 22°18' E 114°13'0 0.0
2014-Sep-17 02:32N 22°18' E 114°13'0 0.0
2014-Sep-17 01:32N 22°18' E 114°13'0 0.0
2014-Sep-17 00:32N 22°18' E 114°13'0 0.1
2014-Sep-16 23:33N 22°18' E 114°13'23417.8
2014-Sep-16 10:28N 23°31' E 118°14'  
2014-Sep-11 00:31N 37°14' E 123°16'1919.7
2014-Sep-10 23:34N 37°31' E 123°07'2019.5
2014-Sep-10 22:33N 37°45' E 122°49'2120.0
2014-Sep-10 21:32N 37°55' E 122°26'3121.2
2014-Sep-10 20:05N 38°08' E 121°52'1121.3
2014-Sep-10 19:33N 38°13' E 121°38'2120.9
2014-Sep-10 18:33N 38°24' E 121°16'1818.1
2014-Sep-10 17:33N 38°32' E 120°55'1716.3
2014-Sep-10 16:31N 38°35' E 120°34'1919.4
2014-Sep-10 15:33N 38°38' E 120°10'2319.9
2014-Sep-10 14:23N 38°41' E 119°41'2620.3
2014-Sep-10 13:07N 38°44' E 119°08'1221.3
2014-Sep-10 12:33N 38°46' E 118°53'2221.6
2014-Sep-10 11:33N 38°48' E 118°25'1817.5
2014-Sep-10 10:30N 38°55' E 118°03'1212.4
2014-Sep-10 09:33N 38°58' E 117°49'0 0.1
2014-Sep-10 08:26N 38°59' E 117°49'0 0.1
2014-Sep-10 07:32N 38°59' E 117°49'0 0.0
2014-Sep-10 04:26N 38°59' E 117°49'0 0.0
2014-Sep-10 03:32N 38°59' E 117°49'0 0.0
2014-Sep-10 02:32N 38°59' E 117°49'0 0.0
2014-Sep-10 01:32N 38°59' E 117°49'0 0.0
2014-Sep-09 22:30N 38°59' E 117°49'9 9.3
2014-Sep-09 21:33N 38°56' E 118°00'2411.8
2014-Sep-09 19:32N 38°50' E 118°29'2613.2
2014-Sep-09 17:33N 38°48' E 119°03'3214.1
2014-Sep-09 15:17N 38°44' E 119°43'1514.9
2014-Sep-09 14:17N 38°42' E 120°02'3813.3
2014-Sep-09 11:24N 38°36' E 120°51'1211.6
2014-Sep-09 10:19N 38°32' E 121°06'1112.9
2014-Sep-09 09:28N 38°27' E 121°18'1413.5
2014-Sep-09 08:26N 38°19' E 121°34'3213.9
2014-Sep-09 06:07N 38°04' E 122°09'814.2
2014-Sep-09 05:32N 37°59' E 122°18'9413.2
2014-Sep-08 22:26N 36°47' E 123°33'6018.8
2014-Sep-08 19:14N 35°53' E 124°08'  

Dump ship's entire track history